Time;durP1;ratioP1;P1;durP2;ratioP2;P2;SDS_P1;SDS_P2;PMS_P1;PMS_P2;Temp;Humidity;BMP_temperature;BMP_pressure;BME280_temperature;BME280_humidity;BME280_pressure;Samples;Min_cycle;Max_cycle;Signal;HPM_P1;HPM_P2
2023/03/07 00:00:51;;;;;;;3.08;1.90;;;-1.90;94.20;;;;;;4945648;29;20481;-79
2023/03/07 00:03:19;;;;;;;4.30;2.05;;;-1.90;94.20;;;;;;4957197;28;20031;-82
2023/03/07 00:05:45;;;;;;;2.58;1.80;;;-1.90;94.20;;;;;;4957942;28;20023;-80
2023/03/07 00:08:11;;;;;;;4.03;2.58;;;-2.00;94.00;;;;;;4951853;28;20023;-81
2023/03/07 00:10:37;;;;;;;4.22;1.70;;;-2.00;94.00;;;;;;4956715;28;20059;-78
2023/03/07 00:13:03;;;;;;;3.17;2.22;;;-2.00;94.00;;;;;;4956956;28;20027;-80
2023/03/07 00:15:29;;;;;;;4.32;2.22;;;-2.00;94.00;;;;;;4956599;28;20031;-81
2023/03/07 00:17:56;;;;;;;3.17;2.17;;;-2.10;94.00;;;;;;4961178;28;20358;-79
2023/03/07 00:20:22;;;;;;;3.03;1.70;;;-2.20;94.10;;;;;;4956743;28;20061;-80
2023/03/07 00:22:48;;;;;;;2.63;2.15;;;-2.30;94.10;;;;;;4939218;29;20485;-79
2023/03/07 00:25:14;;;;;;;5.47;2.17;;;-2.30;94.20;;;;;;4956271;28;20030;-80
2023/03/07 00:27:41;;;;;;;3.38;1.98;;;-2.40;94.30;;;;;;4956723;28;20027;-80
2023/03/07 00:30:09;;;;;;;3.08;1.75;;;-2.50;94.40;;;;;;4956539;28;20042;-80
2023/03/07 00:32:35;;;;;;;5.40;1.65;;;-2.50;94.50;;;;;;4955087;28;20024;-79
2023/03/07 00:35:01;;;;;;;3.13;1.95;;;-2.60;94.50;;;;;;4953898;28;20050;-81
2023/03/07 00:37:26;;;;;;;4.78;3.30;;;-2.60;94.60;;;;;;4956216;28;20063;-79
2023/03/07 00:39:53;;;;;;;2.15;1.80;;;-2.60;94.60;;;;;;4938649;29;20496;-80
2023/03/07 00:42:18;;;;;;;3.15;1.90;;;-2.70;94.70;;;;;;4955963;28;20024;-81
2023/03/07 00:44:44;;;;;;;2.83;1.67;;;-2.70;94.80;;;;;;4956119;28;20070;-79
2023/03/07 00:47:10;;;;;;;3.45;1.80;;;-2.70;94.90;;;;;;4939401;29;20034;-79
2023/03/07 00:49:36;;;;;;;4.30;2.50;;;-2.70;95.00;;;;;;4956349;28;20093;-81
2023/03/07 00:52:02;;;;;;;4.53;2.45;;;-2.70;95.00;;;;;;4960041;28;20039;-80
2023/03/07 00:54:28;;;;;;;2.88;1.85;;;-2.70;95.10;;;;;;4958613;28;20465;-80
2023/03/07 00:56:54;;;;;;;3.40;2.33;;;-2.70;95.10;;;;;;4944919;28;20098;-79
2023/03/07 00:59:19;;;;;;;3.40;1.70;;;-2.60;95.20;;;;;;4954710;28;20019;-80
2023/03/07 01:01:45;;;;;;;2.20;1.80;;;-2.60;95.30;;;;;;4955923;28;20026;-79
2023/03/07 01:04:11;;;;;;;2.83;2.03;;;-2.60;95.40;;;;;;4955854;28;20484;-79
2023/03/07 01:06:37;;;;;;;3.85;2.00;;;-2.50;95.50;;;;;;4957251;28;20717;-80
2023/03/07 01:09:06;;;;;;;3.30;1.80;;;-2.50;95.50;;;;;;4956175;28;20118;-80
2023/03/07 01:11:33;;;;;;;3.20;2.15;;;-2.50;95.50;;;;;;4954759;28;20039;-80
2023/03/07 01:14:01;;;;;;;7.53;3.50;;;-2.50;95.50;;;;;;4955369;28;20377;-80
2023/03/07 01:16:30;;;;;;;4.32;2.00;;;-2.50;95.60;;;;;;4939508;28;20062;-81
2023/03/07 01:18:59;;;;;;;2.85;1.73;;;-2.50;95.60;;;;;;4955335;28;20024;-81
2023/03/07 01:21:29;;;;;;;3.50;2.15;;;-2.50;95.70;;;;;;4938257;28;20039;-80
2023/03/07 01:23:56;;;;;;;5.20;2.90;;;-2.60;95.80;;;;;;4938556;29;20034;-80
2023/03/07 01:26:30;;;;;;;4.13;2.35;;;-2.60;95.90;;;;;;4963616;29;20130;-79
2023/03/07 01:28:59;;;;;;;4.07;2.35;;;-2.70;95.90;;;;;;4960016;28;20023;-80
2023/03/07 01:31:25;;;;;;;3.72;2.47;;;-2.80;95.90;;;;;;4956607;28;20497;-80
2023/03/07 01:33:52;;;;;;;4.88;2.47;;;-2.80;96.10;;;;;;4965263;28;20031;-80
2023/03/07 01:36:24;;;;;;;2.70;1.92;;;-2.80;96.20;;;;;;4961816;29;20027;-81
2023/03/07 01:38:54;;;;;;;3.00;2.35;;;-2.90;96.20;;;;;;4962519;28;20544;-80
2023/03/07 01:41:20;;;;;;;4.43;2.63;;;-2.90;96.30;;;;;;4960007;29;20050;-80
2023/03/07 01:43:46;;;;;;;2.83;2.03;;;-3.00;96.40;;;;;;4956794;29;20027;-79
2023/03/07 01:46:18;;;;;;;4.18;2.63;;;-3.00;96.80;;;;;;4946008;29;20385;-78
2023/03/07 01:48:51;;;;;;;3.83;2.65;;;-3.00;96.70;;;;;;4962045;29;20027;-79
2023/03/07 01:51:18;;;;;;;3.40;2.38;;;-3.00;96.70;;;;;;4972468;28;20031;-79
2023/03/07 01:53:45;;;;;;;4.40;2.03;;;-3.00;96.80;;;;;;4974180;28;20058;-80
2023/03/07 01:56:11;;;;;;;;;;;-3.10;96.90;;;;;;4972041;28;20061;-80
2023/03/07 01:58:38;;;;;;;5.30;3.05;;;-3.00;97.00;;;;;;4965940;28;19906;-79
2023/03/07 02:01:08;;;;;;;4.30;2.28;;;-2.90;97.00;;;;;;4959053;29;20024;-79
2023/03/07 02:03:49;;;;;;;5.95;2.40;;;-2.90;97.00;;;;;;4959947;28;20027;-79
2023/03/07 02:06:15;;;;;;;3.40;2.22;;;-2.80;97.00;;;;;;4939690;28;20048;-80
2023/03/07 02:08:44;;;;;;;3.60;2.38;;;-2.80;97.00;;;;;;4954735;28;20597;-80
2023/03/07 02:11:11;;;;;;;4.82;2.47;;;-2.70;97.10;;;;;;4973744;28;20039;-80
2023/03/07 02:13:37;;;;;;;4.70;2.45;;;-2.60;97.10;;;;;;4973094;28;20101;-80
2023/03/07 02:16:04;;;;;;;4.22;2.53;;;-2.60;97.00;;;;;;4973538;28;20089;-81
2023/03/07 02:18:36;;;;;;;3.28;2.60;;;-2.50;96.90;;;;;;4975566;28;20046;-80
2023/03/07 02:21:14;;;;;;;4.53;2.25;;;-2.60;96.70;;;;;;4973446;28;20030;-81
2023/03/07 02:23:48;;;;;;;3.00;2.03;;;-2.60;96.70;;;;;;4963710;28;20120;-79
2023/03/07 02:26:35;;;;;;;4.00;2.30;;;-2.50;96.80;;;;;;4956686;28;20023;-78
2023/03/07 02:29:02;;;;;;;4.95;2.13;;;-2.60;96.80;;;;;;4965980;28;20380;-80
2023/03/07 02:31:28;;;;;;;5.22;2.92;;;-2.50;96.70;;;;;;4973956;28;20169;-80
2023/03/07 02:33:53;;;;;;;4.43;2.65;;;-2.50;96.70;;;;;;4973681;28;20425;-81
2023/03/07 02:36:27;;;;;;;4.68;2.42;;;-2.60;96.70;;;;;;4972994;28;20019;-80
2023/03/07 02:38:55;;;;;;;6.47;2.30;;;-2.50;96.70;;;;;;4956341;28;20502;-80
2023/03/07 02:41:25;;;;;;;4.22;2.63;;;-2.60;96.70;;;;;;4973661;28;20031;-80
2023/03/07 02:43:51;;;;;;;4.30;2.40;;;-2.60;96.60;;;;;;4968252;28;20360;-80
2023/03/07 02:46:18;;;;;;;5.28;2.45;;;-2.70;96.60;;;;;;4977441;28;20023;-79
2023/03/07 02:48:44;;;;;;;4.35;2.53;;;-2.70;96.70;;;;;;4952442;28;20029;-79
2023/03/07 02:51:10;;;;;;;3.03;2.33;;;-2.70;96.80;;;;;;4973201;28;20475;-80
2023/03/07 02:53:36;;;;;;;5.25;2.28;;;-2.70;96.80;;;;;;4973158;28;20413;-80
2023/03/07 02:56:02;;;;;;;4.35;2.65;;;-2.70;96.80;;;;;;4973742;28;20023;-80
2023/03/07 02:58:31;;;;;;;3.92;2.60;;;-2.60;96.80;;;;;;4973673;28;20019;-80
2023/03/07 03:00:57;;;;;;;3.35;2.50;;;-2.60;96.80;;;;;;4974494;28;20348;-80
2023/03/07 03:03:22;;;;;;;3.80;2.92;;;-2.70;96.70;;;;;;4956075;28;20121;-79
2023/03/07 03:05:48;;;;;;;5.30;3.50;;;-2.70;96.70;;;;;;4974425;28;20102;-79
2023/03/07 03:08:14;;;;;;;3.28;2.55;;;-2.70;96.70;;;;;;4973728;28;20034;-80
2023/03/07 03:10:40;;;;;;;3.80;2.50;;;-2.80;96.70;;;;;;4973643;28;20101;-80
2023/03/07 03:13:06;;;;;;;4.95;2.97;;;-2.80;96.70;;;;;;4973527;28;20019;-79
2023/03/07 03:15:33;;;;;;;6.05;2.65;;;-2.90;96.80;;;;;;4976175;28;20057;-80
2023/03/07 03:17:58;;;;;;;4.10;3.10;;;-2.90;96.80;;;;;;4981554;28;20023;-78
2023/03/07 03:20:26;;;;;;;6.85;4.78;;;-2.90;96.90;;;;;;4973754;28;20499;-80
2023/03/07 03:22:52;;;;;;;5.38;2.78;;;-2.90;97.00;;;;;;4976519;28;20101;-79
2023/03/07 03:25:19;;;;;;;7.30;2.70;;;-2.90;97.00;;;;;;4961536;28;20502;-80
2023/03/07 03:27:45;;;;;;;4.13;2.80;;;-3.00;96.90;;;;;;4976726;28;20031;-79
2023/03/07 03:30:12;;;;;;;7.50;3.30;;;-3.00;96.90;;;;;;4959758;28;20035;-80
2023/03/07 03:32:39;;;;;;;3.75;2.55;;;-3.00;96.90;;;;;;4961203;28;20038;-79
2023/03/07 03:35:06;;;;;;;4.65;3.15;;;-3.00;96.90;;;;;;4977593;28;20086;-80
2023/03/07 03:37:32;;;;;;;5.75;3.30;;;-3.00;97.00;;;;;;4976610;28;20106;-79
2023/03/07 03:39:58;;;;;;;4.68;3.03;;;-3.10;97.00;;;;;;4961163;28;20030;-81
2023/03/07 03:42:24;;;;;;;3.22;2.53;;;-3.10;97.30;;;;;;4974794;28;20093;-80
2023/03/07 03:44:49;;;;;;;5.03;2.67;;;-3.20;97.10;;;;;;4960486;28;20030;-81
2023/03/07 03:47:16;;;;;;;5.03;2.70;;;-3.20;97.20;;;;;;4977470;28;20026;-78
2023/03/07 03:49:42;;;;;;;5.40;3.55;;;-3.20;97.20;;;;;;4976430;28;20054;-80
2023/03/07 03:52:08;;;;;;;5.93;3.58;;;-3.10;97.30;;;;;;4958579;28;20066;-80
2023/03/07 03:54:34;;;;;;;6.45;3.83;;;-3.10;97.20;;;;;;4973035;28;20022;-80
2023/03/07 03:57:00;;;;;;;4.55;2.83;;;-3.10;97.20;;;;;;4976052;28;20034;-80
2023/03/07 03:59:26;;;;;;;6.93;3.55;;;-3.10;97.20;;;;;;4976008;28;20054;-79
2023/03/07 04:01:53;;;;;;;6.03;3.33;;;-3.00;97.20;;;;;;4958513;28;20029;-79
2023/03/07 04:04:20;;;;;;;3.47;2.55;;;-3.00;97.20;;;;;;4976027;28;20043;-81
2023/03/07 04:06:47;;;;;;;4.00;2.88;;;-2.90;97.20;;;;;;4976209;28;20409;-81
2023/03/07 04:09:13;;;;;;;4.18;2.75;;;-2.90;97.10;;;;;;4976423;28;20043;-79
2023/03/07 04:11:39;;;;;;;7.30;3.45;;;-3.00;97.00;;;;;;4978646;28;20393;-81
2023/03/07 04:14:04;;;;;;;7.43;2.90;;;-3.00;97.00;;;;;;4977914;28;20078;-81
2023/03/07 04:16:30;;;;;;;4.30;2.55;;;-3.00;96.90;;;;;;4974101;28;20427;-80
2023/03/07 04:18:57;;;;;;;4.97;2.88;;;-3.00;96.90;;;;;;4977992;28;20023;-79
2023/03/07 04:21:23;;;;;;;6.00;3.45;;;-3.00;96.90;;;;;;4957917;28;20122;-80
2023/03/07 04:23:49;;;;;;;4.60;3.25;;;-3.10;97.00;;;;;;4975949;28;20022;-80
2023/03/07 04:26:24;;;;;;;5.03;2.70;;;-3.00;97.00;;;;;;4979800;28;20027;-80
2023/03/07 04:28:50;;;;;;;6.57;3.15;;;-3.00;97.00;;;;;;4963896;28;20480;-80
2023/03/07 04:31:24;;;;;;;5.30;2.70;;;-3.00;97.00;;;;;;4981145;28;20118;-79
2023/03/07 04:33:52;;;;;;;5.50;3.85;;;-2.90;96.90;;;;;;4999290;28;20050;-80
2023/03/07 04:36:18;;;;;;;7.32;3.60;;;-2.90;96.90;;;;;;4980547;28;20027;-80
2023/03/07 04:38:46;;;;;;;4.18;3.58;;;-2.90;96.80;;;;;;4976175;28;20421;-82
2023/03/07 04:41:17;;;;;;;7.22;4.30;;;-2.80;96.80;;;;;;4973613;28;20067;-81
2023/03/07 04:43:43;;;;;;;4.25;2.83;;;-2.70;96.80;;;;;;4958231;28;20019;-81
2023/03/07 04:46:11;;;;;;;6.78;3.97;;;-2.70;96.70;;;;;;4970543;28;20041;-81
2023/03/07 04:48:37;;;;;;;6.43;3.40;;;-2.70;96.70;;;;;;4975742;28;20800;-80
2023/03/07 04:51:03;;;;;;;7.40;3.35;;;-2.60;96.60;;;;;;4976590;28;20066;-80
2023/03/07 04:53:28;;;;;;;6.25;3.17;;;-2.60;96.40;;;;;;4969658;28;20042;-80
2023/03/07 04:56:03;;;;;;;5.78;3.42;;;-2.60;96.50;;;;;;4976922;28;20388;-80
2023/03/07 04:58:30;;;;;;;6.95;3.50;;;-2.60;96.40;;;;;;4974448;28;20061;-80
2023/03/07 05:00:57;;;;;;;7.85;3.40;;;-2.60;96.40;;;;;;4977237;28;20030;-80
2023/03/07 05:03:25;;;;;;;6.50;3.88;;;-2.60;96.50;;;;;;4985475;28;20031;-82
2023/03/07 05:05:51;;;;;;;5.72;3.47;;;-2.50;96.30;;;;;;4981741;28;20031;-81
2023/03/07 05:08:17;;;;;;;7.15;3.75;;;-2.50;96.20;;;;;;4983553;28;20023;-81
2023/03/07 05:10:43;;;;;;;3.95;2.70;;;-2.50;96.30;;;;;;4975183;28;20051;-81
2023/03/07 05:13:10;;;;;;;8.50;4.22;;;-2.40;96.20;;;;;;4975441;28;20046;-80
2023/03/07 05:15:36;;;;;;;5.75;3.30;;;-2.40;96.10;;;;;;4975576;28;20392;-82
2023/03/07 05:18:02;;;;;;;5.68;3.75;;;-2.40;95.80;;;;;;4977183;28;20045;-82
2023/03/07 05:20:28;;;;;;;3.88;3.17;;;-2.40;96.10;;;;;;4975203;28;20106;-80
2023/03/07 05:22:55;;;;;;;4.50;3.10;;;-2.40;95.80;;;;;;4956816;28;20468;-82
2023/03/07 05:25:22;;;;;;;6.15;3.60;;;-2.30;95.90;;;;;;4974802;28;20019;-81
2023/03/07 05:27:48;;;;;;;6.97;3.63;;;-2.30;95.90;;;;;;4974864;28;20459;-81
2023/03/07 05:30:15;;;;;;;7.65;4.00;;;-2.20;95.90;;;;;;4974549;28;20054;-81
2023/03/07 05:32:41;;;;;;;5.57;3.20;;;-2.10;95.70;;;;;;4957018;28;20031;-81
2023/03/07 05:35:09;;;;;;;7.88;3.50;;;-2.10;95.60;;;;;;4974948;28;20023;-81
2023/03/07 05:37:35;;;;;;;5.47;3.50;;;-2.10;95.50;;;;;;4961797;28;20061;-80
2023/03/07 05:40:03;;;;;;;7.80;4.60;;;-2.10;95.20;;;;;;4969460;28;20022;-81
2023/03/07 05:42:29;;;;;;;11.07;3.88;;;-2.10;95.30;;;;;;4980676;28;20030;-82
2023/03/07 05:44:55;;;;;;;10.63;4.72;;;-2.10;95.50;;;;;;4978380;28;20129;-79
2023/03/07 05:47:21;;;;;;;6.72;4.18;;;-2.00;95.40;;;;;;4990881;28;20192;-80
2023/03/07 05:49:46;;;;;;;7.18;3.85;;;-1.90;95.40;;;;;;4984848;28;20123;-78
2023/03/07 05:52:12;;;;;;;5.15;3.60;;;-1.80;95.40;;;;;;4996637;28;20115;-79
2023/03/07 05:54:38;;;;;;;10.15;4.88;;;-1.80;95.10;;;;;;4976668;28;20027;-79
2023/03/07 05:57:04;;;;;;;5.90;3.65;;;-1.80;95.00;;;;;;4974482;28;20484;-79
2023/03/07 05:59:30;;;;;;;7.07;3.40;;;-1.70;95.00;;;;;;4972373;28;20436;-80
2023/03/07 06:01:56;;;;;;;7.32;3.45;;;-1.60;94.90;;;;;;4975754;28;20429;-79
2023/03/07 06:04:22;;;;;;;30.48;5.63;;;-1.60;94.70;;;;;;4974293;28;20022;-79
2023/03/07 06:06:47;;;;;;;7.28;4.63;;;-1.50;94.70;;;;;;4973000;28;20585;-80
2023/03/07 06:09:13;;;;;;;6.88;4.70;;;-1.40;94.40;;;;;;4974046;28;20069;-79
2023/03/07 06:11:39;;;;;;;7.90;4.55;;;-1.30;94.40;;;;;;4974061;28;20086;-78
2023/03/07 06:14:05;;;;;;;6.88;4.35;;;-1.20;94.20;;;;;;4975032;28;20033;-80
2023/03/07 06:16:31;;;;;;;7.40;4.05;;;-1.20;94.20;;;;;;4959187;28;20023;-79
2023/03/07 06:18:57;;;;;;;8.40;3.60;;;-1.00;94.20;;;;;;4969160;28;20045;-78
2023/03/07 06:21:23;;;;;;;6.70;3.90;;;-1.00;94.00;;;;;;4987160;28;20499;-79
2023/03/07 06:23:49;;;;;;;7.97;4.28;;;-0.90;93.60;;;;;;4977503;28;20023;-79
2023/03/07 06:26:15;;;;;;;7.80;4.85;;;-1.00;93.30;;;;;;4976553;28;20023;-80
2023/03/07 06:28:41;;;;;;;8.80;5.00;;;-1.00;93.70;;;;;;4980472;28;20424;-80
2023/03/07 06:31:12;;;;;;;9.80;3.70;;;-1.00;93.60;;;;;;4982877;28;20453;-78
2023/03/07 06:33:38;;;;;;;7.03;4.75;;;-0.90;93.20;;;;;;4975355;28;20027;-79
2023/03/07 06:36:08;;;;;;;9.18;5.05;;;-0.80;93.30;;;;;;4961515;28;20396;-80
2023/03/07 06:38:34;;;;;;;16.73;9.60;;;-0.70;93.10;;;;;;4984904;28;20113;-79
2023/03/07 06:41:00;;;;;;;7.47;3.90;;;-0.70;92.80;;;;;;4960692;28;20069;-79
2023/03/07 06:43:26;;;;;;;7.28;4.07;;;-0.60;92.70;;;;;;4974649;28;20074;-78
2023/03/07 06:45:52;;;;;;;10.70;4.68;;;-0.50;92.80;;;;;;4974087;28;20031;-79
2023/03/07 06:48:18;;;;;;;8.95;5.32;;;-0.50;92.50;;;;;;4973837;28;20029;-80
2023/03/07 06:50:44;;;;;;;8.13;4.60;;;-0.40;92.50;;;;;;4973729;28;20534;-79
2023/03/07 06:53:10;;;;;;;11.55;4.20;;;-0.20;92.50;;;;;;4973487;28;20507;-81
2023/03/07 06:55:36;;;;;;;10.20;5.07;;;-0.10;92.10;;;;;;4972449;28;20054;-77
2023/03/07 06:58:02;;;;;;;6.93;4.63;;;-0.10;91.90;;;;;;4978359;28;20031;-80
2023/03/07 07:00:29;;;;;;;7.95;3.88;;;0.00;91.80;;;;;;4981061;28;20053;-77
2023/03/07 07:02:55;;;;;;;8.75;4.53;;;0.00;91.50;;;;;;4978612;28;20469;-79
2023/03/07 07:05:20;;;;;;;10.45;4.57;;;0.00;91.40;;;;;;4965067;28;20126;-79
2023/03/07 07:07:46;;;;;;;5.22;3.80;;;0.00;91.30;;;;;;4963464;28;20100;-80
2023/03/07 07:10:12;;;;;;;6.28;3.95;;;-0.10;91.20;;;;;;5001888;28;20105;-79
2023/03/07 07:12:38;;;;;;;6.20;4.30;;;-0.10;91.20;;;;;;4984975;28;20031;-79
2023/03/07 07:15:05;;;;;;;7.55;4.75;;;-0.20;91.30;;;;;;4961098;28;20023;-80
2023/03/07 07:17:34;;;;;;;7.63;5.32;;;-0.20;91.30;;;;;;4977247;28;20077;-79
2023/03/07 07:20:01;;;;;;;8.38;4.35;;;-0.20;91.30;;;;;;4977428;28;20023;-80
2023/03/07 07:22:27;;;;;;;8.57;5.07;;;-0.20;91.20;;;;;;4976999;28;20026;-80
2023/03/07 07:24:52;;;;;;;6.38;4.32;;;-0.20;91.30;;;;;;4977942;28;20031;-79
2023/03/07 07:27:18;;;;;;;6.53;3.97;;;-0.10;91.20;;;;;;4977034;28;20058;-80
2023/03/07 07:29:47;;;;;;;10.40;6.18;;;-0.10;91.00;;;;;;4977109;28;20019;-80
2023/03/07 07:32:13;;;;;;;6.78;4.57;;;-0.10;91.10;;;;;;4977092;28;20042;-79
2023/03/07 07:34:39;;;;;;;7.10;4.30;;;0.00;91.20;;;;;;4977472;28;20027;-78
2023/03/07 07:37:05;;;;;;;9.27;4.90;;;0.10;91.00;;;;;;4976801;28;20085;-80
2023/03/07 07:39:31;;;;;;;8.60;5.28;;;0.10;90.80;;;;;;4969965;28;20027;-80
2023/03/07 07:41:57;;;;;;;8.63;5.45;;;0.20;90.60;;;;;;4979772;28;20030;-80
2023/03/07 07:44:24;;;;;;;7.35;5.55;;;0.10;90.20;;;;;;4959726;28;20023;-80
2023/03/07 07:46:49;;;;;;;9.55;5.38;;;0.00;90.20;;;;;;4958173;28;20070;-81
2023/03/07 07:49:15;;;;;;;8.40;5.30;;;0.00;90.50;;;;;;4976626;28;20481;-80
2023/03/07 07:51:41;;;;;;;10.30;5.40;;;0.10;90.70;;;;;;4977052;28;20039;-80
2023/03/07 07:54:08;;;;;;;7.30;5.13;;;0.30;90.70;;;;;;4969326;28;20029;-81
2023/03/07 07:56:35;;;;;;;10.32;5.90;;;0.40;90.70;;;;;;4978888;28;20062;-80
2023/03/07 07:59:01;;;;;;;8.95;5.35;;;0.60;90.80;;;;;;4982876;28;20388;-80
2023/03/07 08:01:27;;;;;;;8.93;5.30;;;0.70;90.60;;;;;;4976331;28;20042;-79
2023/03/07 08:03:53;;;;;;;10.00;5.88;;;0.70;89.90;;;;;;4975378;28;20034;-79
2023/03/07 08:06:24;;;;;;;7.68;5.22;;;0.60;89.80;;;;;;4958981;28;20023;-80
2023/03/07 08:08:50;;;;;;;9.90;4.53;;;0.70;90.00;;;;;;4958243;28;20070;-80
2023/03/07 08:11:18;;;;;;;10.55;6.95;;;0.90;89.80;;;;;;4975955;28;20067;-80
2023/03/07 08:13:44;;;;;;;11.27;6.57;;;1.00;89.40;;;;;;4975945;28;20030;-79
2023/03/07 08:16:21;;;;;;;10.40;6.60;;;1.30;89.60;;;;;;4976635;28;20235;-80
2023/03/07 08:18:53;;;;;;;8.73;5.30;;;1.60;88.60;;;;;;4977612;28;20030;-78
2023/03/07 08:21:20;;;;;;;9.35;6.20;;;2.70;88.60;;;;;;4979415;28;20038;-80
2023/03/07 08:23:45;;;;;;;11.65;7.18;;;3.80;86.50;;;;;;4976084;28;20019;-81
2023/03/07 08:26:12;;;;;;;8.65;6.22;;;5.40;83.70;;;;;;4975896;28;20429;-80
2023/03/07 08:28:39;;;;;;;9.18;6.05;;;7.00;76.80;;;;;;4958505;28;20062;-79
2023/03/07 08:31:10;;;;;;;10.30;5.82;;;8.20;72.60;;;;;;4975623;28;20035;-80
2023/03/07 08:33:36;;;;;;;12.70;7.50;;;9.10;68.50;;;;;;4975582;28;20026;-80
2023/03/07 08:36:03;;;;;;;9.93;7.32;;;9.60;64.70;;;;;;4968676;28;20085;-81
2023/03/07 08:38:29;;;;;;;9.23;6.78;;;10.40;62.30;;;;;;4977579;28;20019;-81
2023/03/07 08:40:59;;;;;;;15.38;7.20;;;11.00;58.90;;;;;;4984770;28;20042;-80
2023/03/07 08:43:26;;;;;;;8.77;5.82;;;12.00;56.60;;;;;;4984722;28;20034;-81
2023/03/07 08:45:52;;;;;;;10.80;6.47;;;12.00;53.60;;;;;;4999562;28;20056;-81
2023/03/07 08:48:19;;;;;;;9.95;7.22;;;11.50;54.50;;;;;;4987650;28;20468;-79
2023/03/07 08:50:45;;;;;;;7.80;6.65;;;11.80;53.40;;;;;;4987644;28;20045;-82
2023/03/07 08:53:13;;;;;;;10.70;7.43;;;11.70;52.20;;;;;;4959011;28;20484;-80
2023/03/07 08:55:39;;;;;;;10.60;6.90;;;11.10;51.10;;;;;;4977374;28;20037;-79
2023/03/07 08:58:05;;;;;;;9.75;6.45;;;10.30;52.10;;;;;;4976073;28;20094;-81
2023/03/07 09:00:31;;;;;;;8.60;5.22;;;10.00;53.80;;;;;;4957771;28;20471;-81
2023/03/07 09:02:57;;;;;;;9.52;6.97;;;10.30;52.80;;;;;;4975461;28;20023;-81
2023/03/07 09:05:24;;;;;;;12.43;7.35;;;9.90;53.10;;;;;;4975030;28;20027;-79
2023/03/07 09:07:50;;;;;;;8.95;6.50;;;10.60;53.80;;;;;;4974182;28;20095;-80
2023/03/07 09:10:19;;;;;;;10.30;7.00;;;11.60;51.90;;;;;;4975031;28;20520;-79
2023/03/07 09:12:45;;;;;;;8.32;6.30;;;12.70;49.50;;;;;;4974702;28;20560;-80
2023/03/07 09:15:11;;;;;;;9.20;7.05;;;12.60;47.20;;;;;;4957918;28;20094;-81
2023/03/07 09:17:36;;;;;;;8.43;6.20;;;12.80;47.90;;;;;;4976885;28;20051;-79
2023/03/07 09:20:03;;;;;;;9.80;7.07;;;12.80;47.10;;;;;;4973998;28;20093;-79
2023/03/07 09:22:29;;;;;;;12.23;6.97;;;13.10;47.10;;;;;;4975302;28;20025;-81
2023/03/07 09:24:55;;;;;;;7.93;6.30;;;13.80;45.80;;;;;;4973921;28;20396;-80
2023/03/07 09:27:21;;;;;;;8.35;5.95;;;14.20;44.90;;;;;;4974637;28;20023;-81
2023/03/07 09:29:47;;;;;;;7.78;6.38;;;15.10;44.50;;;;;;4957605;28;20023;-80
2023/03/07 09:32:13;;;;;;;7.82;6.35;;;15.70;42.50;;;;;;4975322;28;20093;-79
2023/03/07 09:34:38;;;;;;;9.60;6.68;;;15.60;42.00;;;;;;4966977;28;20027;-81
2023/03/07 09:37:04;;;;;;;6.90;6.10;;;15.10;41.30;;;;;;4972913;28;20138;-80
2023/03/07 09:39:31;;;;;;;10.13;6.88;;;14.80;42.30;;;;;;4974403;28;20023;-79
2023/03/07 09:42:19;;;;;;;9.87;7.57;;;15.20;41.70;;;;;;4974064;28;20066;-80
2023/03/07 09:45:13;;;;;;;12.00;7.60;;;15.70;41.40;;;;;;4986199;28;20024;-80
2023/03/07 09:48:00;;;;;;;10.93;7.00;;;16.20;40.80;;;;;;4945273;28;20059;-79
2023/03/07 09:50:44;;;;;;;7.38;5.53;;;16.50;39.70;;;;;;4974248;28;20090;-82
2023/03/07 09:53:23;;;;;;;8.57;7.43;;;16.40;39.30;;;;;;4975062;28;20110;-81
2023/03/07 09:55:53;;;;;;;9.38;6.60;;;16.40;39.10;;;;;;4984061;28;20065;-80
2023/03/07 09:58:22;;;;;;;8.40;6.18;;;16.60;38.80;;;;;;4982713;28;20030;-81
2023/03/07 10:00:56;;;;;;;8.68;6.50;;;16.30;38.10;;;;;;4984530;28;20020;-80
2023/03/07 10:03:34;;;;;;;9.52;6.93;;;16.10;38.00;;;;;;4978379;28;20030;-79
2023/03/07 10:06:13;;;;;;;6.40;5.30;;;15.70;37.90;;;;;;4956934;28;20033;-79
2023/03/07 10:08:39;;;;;;;7.63;6.43;;;14.60;38.00;;;;;;4973899;28;20051;-81
2023/03/07 10:11:23;;;;;;;6.40;5.40;;;13.90;38.90;;;;;;4957083;28;20059;-79
2023/03/07 10:14:13;;;;;;;8.32;6.05;;;12.90;39.90;;;;;;4955691;28;20031;-81
2023/03/07 10:16:59;;;;;;;10.68;7.18;;;12.30;41.40;;;;;;4973428;28;20366;-81
2023/03/07 10:19:36;;;;;;;12.13;7.35;;;12.30;42.30;;;;;;4973710;28;20030;-80
2023/03/07 10:22:17;;;;;;;10.43;6.95;;;13.00;42.10;;;;;;4973328;28;20026;-80
2023/03/07 10:25:01;;;;;;;7.15;5.85;;;13.70;41.20;;;;;;4973822;28;20030;-80
2023/03/07 10:27:29;;;;;;;10.63;6.85;;;14.00;40.40;;;;;;4984255;28;20030;-79
2023/03/07 10:29:58;;;;;;;9.15;7.50;;;13.70;40.20;;;;;;4986379;28;20022;-81
2023/03/07 10:32:29;;;;;;;11.15;7.78;;;13.10;40.60;;;;;;4980469;28;20034;-78
2023/03/07 10:35:19;;;;;;;10.98;6.47;;;12.00;41.60;;;;;;4973749;28;20034;-81
2023/03/07 10:37:51;;;;;;;9.48;6.35;;;10.50;43.10;;;;;;4975233;28;20023;-80
2023/03/07 10:40:53;;;;;;;10.38;6.72;;;9.30;44.80;;;;;;4980331;28;20113;-80
2023/03/07 10:43:27;;;;;;;9.10;5.70;;;7.90;47.30;;;;;;4960837;28;20054;-80
2023/03/07 10:46:14;;;;;;;12.02;7.60;;;6.90;49.20;;;;;;4981396;28;20178;-79
2023/03/07 10:48:47;;;;;;;11.75;6.70;;;6.20;50.70;;;;;;4980281;28;20018;-79
2023/03/07 10:51:41;;;;;;;12.23;5.97;;;5.80;51.80;;;;;;4967413;28;20049;-79
2023/03/07 10:54:23;;;;;;;9.88;6.45;;;5.70;53.20;;;;;;4977698;28;20029;-79
2023/03/07 10:57:14;;;;;;;13.75;6.65;;;5.80;53.60;;;;;;4974477;28;20030;-79
2023/03/07 10:59:49;;;;;;;7.45;5.97;;;5.70;53.60;;;;;;4973537;28;20440;-80
2023/03/07 11:02:35;;;;;;;10.45;6.90;;;5.50;53.70;;;;;;4972393;28;20041;-81
2023/03/07 11:05:18;;;;;;;8.57;6.20;;;5.30;54.50;;;;;;4973613;28;20424;-80
2023/03/07 11:07:44;;;;;;;12.50;7.63;;;5.10;55.20;;;;;;4974177;28;20437;-81
2023/03/07 11:10:34;;;;;;;12.70;6.32;;;5.10;55.90;;;;;;4972973;28;20075;-81
2023/03/07 11:13:21;;;;;;;12.82;7.47;;;5.10;56.30;;;;;;4973296;28;20027;-80
2023/03/07 11:15:48;;;;;;;10.57;5.60;;;5.10;56.30;;;;;;4973373;28;20023;-80
2023/03/07 11:18:40;;;;;;;7.20;5.18;;;5.00;55.90;;;;;;4973260;28;20444;-80
2023/03/07 11:21:24;;;;;;;6.60;4.30;;;4.80;55.50;;;;;;4966841;28;20027;-80
2023/03/07 11:23:58;;;;;;;10.45;5.22;;;4.40;55.70;;;;;;4955721;28;20037;-80
2023/03/07 11:26:24;;;;;;;8.77;5.28;;;4.10;56.30;;;;;;4987096;28;20025;-80
2023/03/07 11:29:08;;;;;;;13.80;7.30;;;4.10;56.80;;;;;;4973375;28;20023;-80
2023/03/07 11:31:46;;;;;;;10.07;4.95;;;4.20;57.50;;;;;;4972967;28;20113;-79
2023/03/07 11:34:36;;;;;;;11.25;5.55;;;4.30;57.40;;;;;;4973257;28;20049;-80
2023/03/07 11:37:23;;;;;;;7.30;5.60;;;4.30;57.80;;;;;;4972535;28;20035;-81
2023/03/07 11:40:21;;;;;;;10.38;6.05;;;4.20;57.50;;;;;;4973553;28;20019;-80
2023/03/07 11:43:12;;;;;;;9.05;6.43;;;4.30;57.80;;;;;;4976504;28;20019;-81
2023/03/07 11:46:07;;;;;;;12.75;7.68;;;4.30;58.00;;;;;;4973924;28;20082;-80
2023/03/07 11:48:43;;;;;;;11.60;6.95;;;4.40;58.10;;;;;;4978641;28;20015;-81
2023/03/07 11:51:52;;;;;;;13.30;6.57;;;4.30;57.70;;;;;;4960122;28;20373;-80
2023/03/07 11:54:56;;;;;;;9.63;6.25;;;4.20;58.00;;;;;;4916435;28;20492;-80
2023/03/07 11:57:57;;;;;;;8.18;4.95;;;4.10;58.30;;;;;;4965544;28;20089;-80
2023/03/07 12:00:42;;;;;;;9.95;5.97;;;4.10;58.10;;;;;;4977289;28;20023;-81
2023/03/07 12:03:32;;;;;;;14.30;7.50;;;3.90;58.40;;;;;;4984341;28;20027;-80
2023/03/07 12:06:13;;;;;;;10.73;6.53;;;3.90;59.20;;;;;;4997347;28;20031;-80
2023/03/07 12:09:30;;;;;;;12.25;7.97;;;3.90;59.20;;;;;;4992350;28;20086;-80
2023/03/07 12:12:13;;;;;;;8.55;5.85;;;4.00;59.40;;;;;;4964082;28;20058;-79
2023/03/07 12:14:51;;;;;;;11.15;6.72;;;3.90;58.90;;;;;;4977559;28;20026;-81
2023/03/07 12:17:35;;;;;;;16.30;6.97;;;3.80;59.00;;;;;;4987063;28;20022;-80
2023/03/07 12:20:13;;;;;;;6.43;4.40;;;3.80;59.10;;;;;;4976258;28;20161;-81
2023/03/07 12:23:03;;;;;;;8.88;5.40;;;3.70;58.00;;;;;;4976684;28;20109;-79
2023/03/07 12:25:41;;;;;;;5.70;4.03;;;3.30;58.30;;;;;;4976223;28;20027;-80
2023/03/07 12:28:28;;;;;;;8.77;5.05;;;2.90;59.30;;;;;;4962044;28;20027;-79
2023/03/07 12:31:01;;;;;;;9.38;5.03;;;2.80;59.90;;;;;;4979802;28;20031;-80
2023/03/07 12:33:46;;;;;;;8.32;4.65;;;2.80;59.90;;;;;;4976993;28;20058;-79
2023/03/07 12:36:29;;;;;;;5.55;3.63;;;2.80;59.50;;;;;;4976161;28;20034;-81
2023/03/07 12:39:05;;;;;;;7.22;4.85;;;2.60;59.00;;;;;;4975778;28;20014;-81
2023/03/07 12:42:12;;;;;;;9.85;3.65;;;2.60;59.60;;;;;;4976089;28;20023;-80
2023/03/07 12:44:54;;;;;;;5.50;4.20;;;2.60;59.00;;;;;;4957334;28;20034;-79
2023/03/07 12:47:35;;;;;;;7.40;4.03;;;2.50;59.20;;;;;;4974841;28;20098;-80
2023/03/07 12:50:21;;;;;;;4.43;3.55;;;2.30;59.10;;;;;;4957738;28;20014;-80
2023/03/07 12:52:48;;;;;;;6.40;3.90;;;2.20;60.00;;;;;;4958122;28;20440;-79
2023/03/07 12:55:59;;;;;;;7.35;4.85;;;2.20;60.10;;;;;;4975932;28;20022;-79
2023/03/07 12:58:49;;;;;;;9.27;5.40;;;2.30;60.20;;;;;;4975008;28;20551;-79
2023/03/07 13:01:24;;;;;;;8.50;5.45;;;2.40;60.50;;;;;;4964547;28;20022;-81
2023/03/07 13:04:24;;;;;;;9.20;5.35;;;2.50;60.90;;;;;;4960275;28;20027;-78
2023/03/07 13:06:51;;;;;;;7.20;4.60;;;2.60;60.50;;;;;;4978685;28;20169;-79